Time;durP1;ratioP1;P1;durP2;ratioP2;P2;SDS_P1;SDS_P2;PMS_P1;PMS_P2;Temp;Humidity;BMP_temperature;BMP_pressure;BME280_temperature;BME280_humidity;BME280_pressure;Samples;Min_cycle;Max_cycle;Signal;HPM_P1;HPM_P2
2022/12/22 03:27:20;;;;;;;1.10;0.50;;;10.60;99.90;;;10.53;100.00;99702.44;5205507;28;20165;-67
2022/12/22 03:29:52;;;;;;;0.43;0.43;;;10.60;99.90;;;10.55;100.00;99705.06;5210973;28;20083;-66
2022/12/22 03:32:25;;;;;;;0.63;0.43;;;10.60;99.90;;;10.53;100.00;99697.22;5220596;28;20041;-66
2022/12/22 03:34:59;;;;;;;0.35;0.35;;;10.60;99.90;;;10.55;100.00;99690.28;5209123;28;20100;-67
2022/12/22 03:37:31;;;;;;;1.40;0.73;;;10.60;99.90;;;10.54;100.00;99683.34;5210229;28;20048;-66
2022/12/22 03:40:04;;;;;;;1.23;0.55;;;10.60;99.90;;;10.52;100.00;99684.16;5214186;28;20406;-66
2022/12/22 03:48:15;;;;;;;0.40;0.40;;;10.60;99.90;;;10.52;100.00;99674.63;5214357;28;20468;-66
2022/12/22 03:50:49;;;;;;;0.32;0.32;;;10.60;99.90;;;10.52;100.00;99661.59;5212423;28;20041;-66
2022/12/22 03:53:21;;;;;;;0.75;0.20;;;10.60;99.90;;;10.54;100.00;99672.03;5221154;28;20075;-67
2022/12/22 03:55:53;;;;;;;1.20;0.40;;;10.60;99.90;;;10.55;100.00;99659.03;5209693;28;20042;-67
2022/12/22 03:58:25;;;;;;;0.32;0.32;;;10.60;99.90;;;10.56;100.00;99665.13;5223127;28;20040;-67
2022/12/22 04:01:06;;;;;;;0.40;0.40;;;10.60;99.90;;;10.52;100.00;99653.78;5217449;28;20042;-68
2022/12/22 04:03:38;;;;;;;0.40;0.40;;;10.60;99.90;;;10.48;100.00;99659.78;5198779;28;20049;-68
2022/12/22 04:06:11;;;;;;;0.35;0.32;;;10.60;99.90;;;10.47;100.00;99649.34;5217943;28;20536;-68
2022/12/22 04:08:43;;;;;;;0.47;0.35;;;10.60;99.90;;;10.47;100.00;99652.81;5225851;28;20128;-69
2022/12/22 04:14:07;;;;;;;2.45;0.52;;;10.60;99.90;;;10.45;100.00;99643.22;5226041;28;20040;-67
2022/12/22 04:16:39;;;;;;;1.30;0.45;;;10.60;99.90;;;10.41;100.00;99634.47;5225527;28;20044;-68
2022/12/22 04:19:11;;;;;;;0.50;0.50;;;10.60;99.90;;;10.39;100.00;99624.91;5226204;28;20048;-67
2022/12/22 04:21:44;;;;;;;1.88;1.13;;;10.60;99.90;;;10.39;100.00;99622.28;5208047;28;20040;-69
2022/12/22 04:24:17;;;;;;;0.50;0.50;;;10.50;99.90;;;10.36;100.00;99610.06;5226207;28;20072;-68
2022/12/22 04:26:49;;;;;;;0.70;0.40;;;10.50;99.90;;;10.36;100.00;99599.66;5225575;28;20242;-68
2022/12/22 04:29:21;;;;;;;0.57;0.45;;;10.50;99.90;;;10.36;100.00;99603.97;5225602;28;20049;-68
2022/12/22 04:31:53;;;;;;;0.68;0.63;;;10.50;99.90;;;10.35;100.00;99597.91;5225451;28;20045;-67
2022/12/22 04:34:26;;;;;;;0.60;0.57;;;10.50;99.90;;;10.35;100.00;99582.28;5225834;28;20071;-67
2022/12/22 04:36:59;;;;;;;0.65;0.40;;;10.50;99.90;;;10.34;100.00;99577.91;5225511;28;20132;-68
2022/12/22 04:39:31;;;;;;;1.40;0.52;;;10.50;99.90;;;10.33;100.00;99564.03;5225762;28;20107;-68
2022/12/22 04:42:03;;;;;;;0.95;0.45;;;10.50;99.90;;;10.33;100.00;99563.16;5207906;28;20045;-69
2022/12/22 04:44:36;;;;;;;0.38;0.38;;;10.50;99.90;;;10.35;100.00;99560.56;5226187;28;20047;-69
2022/12/22 04:47:08;;;;;;;0.50;0.50;;;10.50;99.90;;;10.35;100.00;99561.44;5225489;28;20049;-68
2022/12/22 04:49:40;;;;;;;0.80;0.50;;;10.50;99.90;;;10.35;100.00;99555.34;5225767;28;20044;-68
2022/12/22 04:52:14;;;;;;;0.43;0.43;;;10.50;99.90;;;10.38;100.00;99555.41;5225996;28;20051;-68
2022/12/22 04:54:46;;;;;;;1.20;0.52;;;10.50;99.90;;;10.39;100.00;99547.63;5225515;28;20275;-68
2022/12/22 04:57:18;;;;;;;0.40;0.40;;;10.50;99.90;;;10.42;100.00;99547.66;5207800;28;20071;-68
2022/12/22 04:59:50;;;;;;;0.82;0.52;;;10.50;99.90;;;10.43;100.00;99539.00;5225477;28;20116;-68
2022/12/22 05:02:22;;;;;;;1.15;0.40;;;10.60;99.90;;;10.45;100.00;99539.91;5226593;28;20037;-69
2022/12/22 05:04:54;;;;;;;0.68;0.57;;;10.50;99.90;;;10.46;100.00;99536.44;5229973;28;20041;-68
2022/12/22 05:07:28;;;;;;;0.32;0.32;;;10.60;99.90;;;10.51;100.00;99537.38;5229304;28;20049;-68
2022/12/22 05:10:00;;;;;;;0.40;0.40;;;10.60;99.90;;;10.53;100.00;99534.81;5229278;28;20037;-68
2022/12/22 05:15:22;;;;;;;0.43;0.43;;;10.60;99.90;;;10.58;100.00;99533.16;5229168;28;20045;-67
2022/12/22 05:17:55;;;;;;;0.50;0.50;;;10.60;99.90;;;10.58;100.00;99534.03;5229182;28;20039;-67
2022/12/22 05:20:28;;;;;;;1.13;0.77;;;10.60;99.90;;;10.59;100.00;99525.34;5229568;28;20045;-67
2022/12/22 05:23:02;;;;;;;0.82;0.77;;;10.60;99.90;;;10.59;100.00;99525.34;5229178;28;20067;-67
2022/12/22 05:25:34;;;;;;;0.88;0.63;;;10.60;99.90;;;10.60;100.00;99521.00;5211004;28;20068;-67
2022/12/22 05:28:06;;;;;;;1.00;0.90;;;10.70;99.90;;;10.59;100.00;99519.25;5229358;28;20041;-66
2022/12/22 05:30:40;;;;;;;1.58;0.98;;;10.70;99.90;;;10.58;100.00;99531.41;5228861;28;20070;-67
2022/12/22 05:33:15;;;;;;;1.15;1.13;;;10.70;99.90;;;10.58;100.00;99531.41;5229077;28;20513;-69
2022/12/22 05:35:47;;;;;;;;;;;10.60;99.90;;;10.62;100.00;99536.66;5229347;28;20076;-66
2022/12/22 05:38:20;;;;;;;1.33;0.73;;;10.60;99.90;;;10.60;100.00;99529.69;5229031;28;19924;-66
2022/12/22 05:40:52;;;;;;;0.75;0.70;;;10.70;99.90;;;10.62;100.00;99527.09;5211224;28;20045;-66
2022/12/22 05:43:25;;;;;;;1.80;1.45;;;10.70;99.90;;;10.64;100.00;99519.34;5211336;28;20044;-67
2022/12/22 05:45:57;;;;;;;0.75;0.75;;;10.70;99.90;;;10.66;100.00;99522.81;5228936;28;20175;-67
2022/12/22 05:48:30;;;;;;;1.85;1.00;;;10.70;99.90;;;10.67;100.00;99527.19;5228701;28;20048;-68
2022/12/22 05:51:02;;;;;;;0.60;0.60;;;10.70;99.90;;;10.67;100.00;99530.66;5210901;28;20466;-68
2022/12/22 05:53:36;;;;;;;0.75;0.75;;;10.70;99.90;;;10.69;100.00;99523.72;5229262;28;20083;-67
2022/12/22 05:56:09;;;;;;;0.85;0.82;;;10.70;99.90;;;10.70;100.00;99522.03;5229268;28;20091;-68
2022/12/22 05:58:41;;;;;;;0.98;0.85;;;10.70;99.90;;;10.69;100.00;99526.34;5228881;28;20049;-68
2022/12/22 06:01:13;;;;;;;1.83;0.80;;;10.70;99.90;;;10.71;100.00;99529.84;5228965;28;20037;-67
2022/12/22 06:03:45;;;;;;;0.70;0.70;;;10.70;99.90;;;10.73;100.00;99525.53;5210539;28;20044;-65
2022/12/22 06:06:17;;;;;;;1.05;0.80;;;10.80;99.90;;;10.76;100.00;99535.16;5228031;28;20497;-65
2022/12/22 06:08:51;;;;;;;0.85;0.60;;;10.80;99.90;;;10.77;100.00;99534.28;5228159;28;20041;-67
2022/12/22 06:11:23;;;;;;;0.65;0.50;;;10.80;99.90;;;10.78;100.00;99549.94;5228030;28;20086;-65
2022/12/22 06:13:55;;;;;;;0.70;0.70;;;10.80;99.90;;;10.77;100.00;99544.72;5227453;28;20041;-66
2022/12/22 06:16:27;;;;;;;0.47;0.40;;;10.80;99.90;;;10.77;100.00;99552.53;5227924;28;20041;-65
2022/12/22 06:18:59;;;;;;;1.00;0.60;;;10.80;99.90;;;10.78;100.00;99547.34;5227632;28;20052;-65
2022/12/22 06:21:31;;;;;;;0.70;0.45;;;10.80;99.90;;;10.79;100.00;99537.78;5227797;28;20059;-65
2022/12/22 06:24:06;;;;;;;0.32;0.32;;;10.80;99.90;;;10.80;100.00;99539.53;5227498;28;20382;-66
2022/12/22 06:26:38;;;;;;;1.00;0.40;;;10.80;99.90;;;10.81;100.00;99538.66;5227538;28;20047;-66
2022/12/22 06:29:10;;;;;;;0.30;0.30;;;10.80;99.90;;;10.81;100.00;99546.50;5226909;28;20049;-66
2022/12/22 06:31:42;;;;;;;0.40;0.40;;;10.80;99.90;;;10.82;100.00;99548.22;5209144;28;20045;-67
2022/12/22 06:34:16;;;;;;;1.27;0.40;;;10.80;99.90;;;10.80;100.00;99540.41;5227362;28;20045;-67
2022/12/22 06:36:49;;;;;;;0.52;0.52;;;10.80;99.90;;;10.80;100.00;99544.75;5226986;28;20088;-66
2022/12/22 06:39:23;;;;;;;0.50;0.32;;;10.80;99.90;;;10.79;100.00;99548.22;5227485;28;20045;-68
2022/12/22 06:44:44;;;;;;;2.33;0.32;;;10.80;99.90;;;10.77;100.00;99568.16;5229163;28;20062;-67
2022/12/22 06:47:16;;;;;;;0.50;0.38;;;10.80;99.90;;;10.76;100.00;99563.81;5229153;28;20045;-67
2022/12/22 06:49:48;;;;;;;0.50;0.50;;;10.80;99.90;;;10.76;100.00;99563.81;5228737;28;20048;-67
2022/12/22 06:52:20;;;;;;;0.40;0.40;;;10.80;99.90;;;10.75;100.00;99562.03;5228147;28;20048;-67
2022/12/22 06:54:54;;;;;;;0.47;0.40;;;10.80;99.90;;;10.76;100.00;99569.03;5228039;28;20502;-68
2022/12/22 06:57:26;;;;;;;0.32;0.32;;;10.80;99.90;;;10.75;100.00;99582.88;5227069;28;20052;-68
2022/12/22 06:59:58;;;;;;;0.38;0.38;;;10.80;99.90;;;10.75;100.00;99594.19;5228390;28;20525;-64
2022/12/22 07:02:31;;;;;;;0.40;0.40;;;10.70;99.90;;;10.75;100.00;99593.31;5226790;28;20095;-63
2022/12/22 07:05:03;;;;;;;0.43;0.43;;;10.80;99.90;;;10.75;100.00;99599.41;5226480;28;20091;-60
2022/12/22 07:07:35;;;;;;;0.68;0.60;;;10.70;99.90;;;10.76;100.00;99615.94;5226228;28;20501;-61
2022/12/22 07:10:10;;;;;;;0.40;0.40;;;10.70;99.90;;;10.76;100.00;99615.94;5226396;28;20044;-62
2022/12/22 07:12:42;;;;;;;0.47;0.47;;;10.70;99.90;;;10.75;100.00;99625.47;5225934;28;20128;-63
2022/12/22 07:15:14;;;;;;;0.52;0.52;;;10.80;99.90;;;10.73;100.00;99621.09;5225963;28;20040;-61
2022/12/22 07:17:46;;;;;;;0.40;0.32;;;10.70;99.90;;;10.74;100.00;99633.28;5225810;28;20121;-64
2022/12/22 07:20:18;;;;;;;0.40;0.40;;;10.70;99.90;;;10.71;100.00;99638.44;5226079;28;20060;-62
2022/12/22 07:22:50;;;;;;;0.32;0.32;;;10.70;99.90;;;10.72;100.00;99645.41;5225547;28;20124;-62
2022/12/22 07:25:24;;;;;;;0.52;0.52;;;10.70;99.90;;;10.70;100.00;99655.81;5207822;28;20048;-62
2022/12/22 07:27:56;;;;;;;0.45;0.45;;;10.70;99.90;;;10.70;100.00;99657.56;5224519;28;20137;-63
2022/12/22 07:30:28;;;;;;;0.52;0.52;;;10.70;99.90;;;10.70;100.00;99660.16;5226055;28;20045;-62
2022/12/22 07:33:00;;;;;;;0.65;0.63;;;10.70;99.90;;;10.69;100.00;99667.06;5225874;28;20073;-63
2022/12/22 07:35:32;;;;;;;1.27;0.73;;;10.70;99.90;;;10.69;100.00;99666.19;5225601;28;20074;-62
2022/12/22 07:38:04;;;;;;;0.98;0.80;;;10.70;99.90;;;10.68;100.00;99675.75;5225507;28;20040;-62
2022/12/22 07:40:38;;;;;;;0.75;0.50;;;10.70;99.90;;;10.67;100.00;99680.94;5225611;28;20044;-62
2022/12/22 07:43:09;;;;;;;0.70;0.52;;;10.60;99.90;;;10.66;100.00;99682.66;5225637;28;20116;-64
2022/12/22 07:45:41;;;;;;;0.63;0.63;;;10.60;99.90;;;10.66;100.00;99695.69;5224129;28;20048;-61
2022/12/22 07:51:04;;;;;;;0.98;0.70;;;10.60;99.90;;;10.64;100.00;99704.34;5224791;28;20061;-63
2022/12/22 07:53:36;;;;;;;0.80;0.63;;;10.60;99.90;;;10.63;100.00;99710.41;5224988;28;20044;-63
2022/12/22 07:56:09;;;;;;;0.70;0.47;;;10.60;99.90;;;10.63;100.00;99718.22;5225135;28;20401;-62
2022/12/22 07:58:41;;;;;;;0.50;0.50;;;10.60;99.90;;;10.63;100.00;99726.03;5225084;28;20513;-61
2022/12/22 08:01:13;;;;;;;0.60;0.50;;;10.60;99.90;;;10.62;100.00;99725.16;5225255;28;20037;-61
2022/12/22 08:03:46;;;;;;;0.60;0.57;;;10.60;99.90;;;10.62;100.00;99717.34;5225427;28;20076;-59
2022/12/22 08:06:19;;;;;;;1.05;0.77;;;10.60;99.90;;;10.62;100.00;99726.88;5224903;28;20052;-60
2022/12/22 08:08:51;;;;;;;0.82;0.55;;;10.60;99.90;;;10.62;100.00;99732.09;5224382;28;20079;-58
2022/12/22 08:11:25;;;;;;;0.55;0.52;;;10.60;99.90;;;10.61;100.00;99741.66;5224870;28;20045;-56
2022/12/22 08:13:57;;;;;;;0.52;0.52;;;10.60;99.90;;;10.63;100.00;99739.97;5273355;22;20150;-59
2022/12/22 08:16:29;;;;;;;0.60;0.60;;;10.60;99.90;;;10.64;100.00;99740.84;5156223;28;20050;-58
2022/12/22 08:19:01;;;;;;;0.52;0.52;;;10.60;99.90;;;10.64;100.00;99744.31;5162341;28;20046;-58
2022/12/22 08:21:33;;;;;;;0.38;0.32;;;10.60;99.90;;;10.64;100.00;99753.88;5162549;28;20053;-57
2022/12/22 08:24:07;;;;;;;0.85;0.65;;;10.60;99.90;;;10.65;100.00;99758.22;5162744;28;20046;-59
2022/12/22 08:26:44;;;;;;;1.45;1.10;;;10.70;99.90;;;10.65;100.00;99755.63;5163492;28;20054;-59
2022/12/22 08:29:21;;;;;;;1.70;1.17;;;10.60;99.90;;;10.64;100.00;99765.16;5162766;28;20495;-58
2022/12/22 08:31:54;;;;;;;2.42;1.42;;;10.60;99.90;;;10.67;100.00;99769.53;5163238;28;20057;-59
2022/12/22 08:34:26;;;;;;;3.92;2.10;;;10.60;99.90;;;10.65;100.00;99774.75;5161727;28;20558;-58
2022/12/22 08:37:01;;;;;;;4.30;2.10;;;10.70;99.90;;;10.66;100.00;99775.63;5162985;28;20038;-59
2022/12/22 08:39:38;;;;;;;3.58;1.88;;;10.60;99.90;;;10.64;100.00;99793.84;5162617;28;20074;-59
2022/12/22 08:42:16;;;;;;;5.07;2.17;;;10.60;99.90;;;10.65;100.00;99795.59;5163030;28;20038;-59
2022/12/22 08:44:52;;;;;;;5.60;2.85;;;10.70;99.90;;;10.67;100.00;99811.25;5162514;28;20043;-58
2022/12/22 08:47:24;;;;;;;6.75;3.33;;;10.70;99.90;;;10.66;100.00;99823.41;5163286;28;20054;-59
2022/12/22 08:49:56;;;;;;;7.28;3.13;;;10.70;99.90;;;10.65;100.00;99821.66;5162988;28;20058;-59
2022/12/22 08:52:28;;;;;;;5.97;3.03;;;10.70;99.90;;;10.63;100.00;99825.97;5155976;28;20073;-58
2022/12/22 08:55:00;;;;;;;7.05;2.90;;;10.70;99.90;;;10.65;100.00;99832.06;5113463;28;20054;-58
2022/12/22 08:57:34;;;;;;;7.22;3.35;;;10.70;99.90;;;10.65;100.00;99834.69;5162616;28;20411;-57
2022/12/22 09:00:09;;;;;;;6.97;2.92;;;10.70;99.90;;;10.65;100.00;99832.06;5163543;28;20073;-59
2022/12/22 09:02:41;;;;;;;6.35;3.03;;;10.70;99.90;;;10.66;100.00;99838.16;5163590;28;20085;-57
2022/12/22 09:05:13;;;;;;;6.50;3.08;;;10.70;99.90;;;10.69;100.00;99838.22;5163165;28;20046;-58
2022/12/22 09:07:47;;;;;;;5.55;2.38;;;10.70;99.90;;;10.96;100.00;99843.09;5162935;28;20054;-58
2022/12/22 09:10:19;;;;;;;9.02;3.53;;;11.00;99.90;;;11.01;100.00;99857.94;5163242;28;20046;-58
2022/12/22 09:12:52;;;;;;;10.25;3.88;;;11.00;99.90;;;11.02;100.00;99851.00;5167704;28;20046;-59
2022/12/22 09:15:25;;;;;;;8.35;2.92;;;11.10;99.90;;;11.04;100.00;99858.00;5183158;28;20121;-59
2022/12/22 09:17:57;;;;;;;8.75;3.38;;;11.10;99.90;;;11.05;100.00;99867.59;5182738;28;20046;-59
2022/12/22 09:20:29;;;;;;;9.00;2.22;;;11.20;99.90;;;11.55;100.00;99872.78;5182978;28;20078;-60
2022/12/22 09:23:01;;;;;;;7.97;3.35;;;11.70;99.90;;;11.74;100.00;99883.53;5183209;28;20069;-58
2022/12/22 09:25:35;;;;;;;7.88;3.13;;;11.90;99.90;;;11.61;100.00;99887.69;5183258;28;20500;-58
2022/12/22 09:28:08;;;;;;;8.27;3.40;;;11.90;99.90;;;11.44;100.00;99904.78;5162871;28;20042;-60
2022/12/22 09:30:40;;;;;;;6.68;3.30;;;11.70;99.90;;;11.26;100.00;99910.53;5177455;28;20129;-58
2022/12/22 09:33:12;;;;;;;7.85;3.20;;;11.60;99.90;;;11.16;100.00;99919.06;5162709;28;20042;-61
2022/12/22 09:35:45;;;;;;;7.55;3.63;;;11.40;99.90;;;11.09;100.00;99933.72;5162564;28;20055;-61
2022/12/22 09:38:17;;;;;;;10.75;4.55;;;11.30;99.90;;;11.02;100.00;99943.16;5162480;28;20046;-59
2022/12/22 09:40:49;;;;;;;6.88;3.22;;;11.20;99.90;;;11.05;100.00;99951.03;5162209;28;20477;-60
2022/12/22 09:43:28;;;;;;;9.20;3.67;;;11.30;99.90;;;11.13;100.00;99972.91;5162045;28;20544;-60
2022/12/22 09:46:01;;;;;;;9.88;3.95;;;11.30;99.90;;;11.09;100.00;99976.34;5162244;28;20054;-61
2022/12/22 09:48:37;;;;;;;12.27;5.53;;;11.20;99.90;;;11.04;100.00;99985.78;5162930;28;20046;-60
2022/12/22 09:51:13;;;;;;;11.15;4.65;;;11.20;99.90;;;10.93;100.00;99984.69;5166521;28;20073;-60
2022/12/22 09:53:48;;;;;;;11.45;4.70;;;11.10;99.90;;;10.88;100.00;99991.53;5166290;28;20054;-59
2022/12/22 09:56:23;;;;;;;10.70;5.00;;;11.10;99.90;;;10.84;100.00;99989.72;5166056;28;20057;-59
2022/12/22 09:58:57;;;;;;;10.48;4.53;;;11.00;99.90;;;10.82;100.00;99994.00;5165816;28;20050;-60
2022/12/22 10:01:46;;;;;;;10.60;4.70;;;11.00;99.90;;;10.81;100.00;99994.84;5165976;28;20057;-59
2022/12/22 10:04:37;;;;;;;13.68;6.53;;;11.00;99.90;;;10.79;100.00;100002.66;5165571;28;20046;-60
2022/12/22 10:07:20;;;;;;;19.58;8.10;;;10.90;99.90;;;10.79;100.00;100009.59;5164770;28;20097;-59
2022/12/22 10:09:52;;;;;;;18.50;7.65;;;10.90;99.90;;;10.76;100.00;100006.94;5164906;28;20046;-59
2022/12/22 10:12:26;;;;;;;18.80;7.50;;;10.80;99.90;;;10.75;100.00;100005.16;5165893;28;20058;-58
2022/12/22 10:14:59;;;;;;;16.17;7.00;;;10.90;99.90;;;10.77;100.00;100003.47;5165055;28;20050;-60
2022/12/22 10:17:34;;;;;;;18.40;7.45;;;10.80;99.90;;;10.78;100.00;100000.03;5164144;28;20054;-60
2022/12/22 10:20:25;;;;;;;14.48;6.38;;;10.90;99.90;;;10.83;100.00;100006.22;5165836;28;20084;-62
2022/12/22 10:22:59;;;;;;;14.32;6.18;;;10.90;99.90;;;10.85;100.00;100009.72;5165945;28;20156;-59
2022/12/22 10:25:35;;;;;;;13.00;5.47;;;10.90;99.90;;;10.85;100.00;100007.13;5165597;28;20046;-60
2022/12/22 10:28:13;;;;;;;12.75;5.07;;;10.90;99.90;;;10.86;100.00;100001.94;5165386;28;20046;-60
2022/12/22 10:30:46;;;;;;;18.55;7.10;;;10.90;99.90;;;10.88;100.00;100018.47;5174919;28;20100;-59
2022/12/22 10:33:19;;;;;;;14.18;5.82;;;10.90;99.90;;;10.90;100.00;100028.97;5185701;28;20045;-60
2022/12/22 10:35:53;;;;;;;15.30;6.13;;;10.90;99.90;;;10.90;100.00;100025.47;5184381;28;20052;-60
2022/12/22 10:38:30;;;;;;;18.23;7.25;;;10.90;99.90;;;10.87;100.00;100032.38;5185596;28;20073;-60
2022/12/22 10:41:14;;;;;;;19.00;7.45;;;10.90;99.90;;;10.90;100.00;100036.78;5186276;28;20061;-59
2022/12/22 10:43:48;;;;;;;17.13;6.75;;;10.90;99.90;;;10.85;100.00;100054.06;5185951;28;20050;-59
2022/12/22 10:46:38;;;;;;;15.55;6.32;;;10.90;99.90;;;10.84;100.00;100060.13;5185584;28;20053;-58
2022/12/22 10:49:19;;;;;;;17.88;6.38;;;10.90;99.90;;;10.79;100.00;100060.00;5185346;28;20046;-59
2022/12/22 10:51:54;;;;;;;14.93;6.30;;;10.90;99.90;;;10.79;100.00;100059.13;5185396;28;20042;-58
2022/12/22 10:54:34;;;;;;;14.23;6.25;;;10.80;99.90;;;10.76;100.00;100061.69;5185963;28;20074;-60
2022/12/22 10:57:27;;;;;;;14.93;5.90;;;10.80;99.90;;;10.75;100.00;100070.31;5185477;28;20506;-58
2022/12/22 11:00:01;;;;;;;12.18;5.18;;;10.80;99.90;;;10.87;100.00;100073.19;5184568;28;20049;-59
2022/12/22 11:02:37;;;;;;;12.65;4.32;;;10.90;99.90;;;11.07;100.00;100081.47;5185763;28;20482;-61
2022/12/22 11:05:11;;;;;;;15.27;6.20;;;11.10;99.90;;;11.16;100.00;100080.78;5185543;28;20108;-59
2022/12/22 11:07:46;;;;;;;16.73;6.38;;;11.20;99.90;;;11.08;100.00;100078.00;5185094;28;20049;-60
2022/12/22 11:10:27;;;;;;;12.85;5.03;;;11.20;99.90;;;10.98;100.00;100087.38;5185429;28;20046;-62
2022/12/22 11:13:34;;;;;;;14.35;5.38;;;11.10;99.90;;;10.92;100.00;100100.28;5185226;28;20069;-60
2022/12/22 11:16:16;;;;;;;11.82;5.30;;;11.00;99.90;;;10.99;100.00;100088.25;5175742;28;20124;-60
2022/12/22 11:19:12;;;;;;;13.75;5.45;;;11.10;99.90;;;11.01;100.00;100097.84;5185202;28;20050;-60
2022/12/22 11:21:54;;;;;;;13.57;5.70;;;11.10;99.90;;;11.00;100.00;100098.69;5185169;28;20060;-59
2022/12/22 11:24:37;;;;;;;12.18;4.75;;;11.10;99.90;;;11.00;100.00;100101.31;5184840;28;20056;-62
2022/12/22 11:27:26;;;;;;;11.52;4.40;;;11.10;99.90;;;11.01;100.00;100102.19;5184452;28;20046;-60
2022/12/22 11:30:08;;;;;;;15.45;6.32;;;11.10;99.90;;;10.97;100.00;100116.91;5184156;28;20534;-60
2022/12/22 11:33:14;;;;;;;15.63;6.05;;;11.10;99.90;;;10.98;100.00;100116.06;5184048;28;20487;-60
2022/12/22 11:35:57;;;;;;;12.85;4.88;;;11.10;99.90;;;10.98;100.00;100117.78;5184756;28;20104;-61
2022/12/22 11:38:45;;;;;;;16.48;6.30;;;11.00;99.90;;;10.97;100.00;100119.50;5184448;28;20061;-60
2022/12/22 11:41:38;;;;;;;;;;;11.00;99.90;;;10.92;100.00;100118.53;5185226;28;20053;-59
2022/12/22 11:44:37;;;;;;;15.25;5.70;;;11.00;99.90;;;10.90;100.00;100128.03;5184738;28;19921;-60
2022/12/22 11:47:22;;;;;;;16.23;6.30;;;11.00;99.90;;;10.92;100.00;100136.78;5184234;28;20112;-60
2022/12/22 11:50:29;;;;;;;14.70;5.70;;;11.00;99.90;;;10.90;100.00;100135.88;5184364;28;20046;-60
2022/12/22 11:53:14;;;;;;;;;;;11.00;99.90;;;10.91;100.00;100147.19;5169773;28;20078;-60
2022/12/22 11:56:05;;;;;;;13.98;4.97;;;11.00;99.90;;;10.91;100.00;100150.66;5184948;28;20467;-61
2022/12/22 11:59:05;;;;;;;14.65;5.88;;;11.00;99.90;;;10.85;100.00;100148.78;5184329;28;20136;-60
2022/12/22 12:02:08;;;;;;;14.80;6.55;;;11.00;99.90;;;10.84;100.00;100146.16;5184345;28;20159;-58
2022/12/22 12:05:19;;;;;;;14.52;5.28;;;10.90;99.90;;;10.77;100.00;100160.78;5184488;28;20049;-59
2022/12/22 12:07:58;;;;;;;14.00;5.80;;;10.90;99.90;;;10.75;100.00;100166.78;5184196;28;20053;-59
2022/12/22 12:10:40;;;;;;;15.30;6.40;;;10.90;99.90;;;10.75;100.00;100161.56;5184548;28;20052;-58
2022/12/22 12:13:24;;;;;;;15.48;6.75;;;10.80;99.90;;;10.75;100.00;100164.16;5183929;28;20495;-58
2022/12/22 12:16:08;;;;;;;12.65;4.97;;;10.80;99.90;;;10.77;100.00;100168.59;5184153;28;20410;-61
2022/12/22 12:19:05;;;;;;;14.18;6.07;;;10.90;99.90;;;10.81;100.00;100166.91;5183948;28;20049;-58
2022/12/22 12:21:49;;;;;;;12.43;4.88;;;10.90;99.90;;;10.86;100.00;100166.19;5184044;28;20064;-62
2022/12/22 12:24:50;;;;;;;12.30;4.70;;;10.90;99.90;;;11.39;100.00;100182.16;5176245;28;20045;-60
2022/12/22 12:27:50;;;;;;;13.65;4.55;;;11.40;99.90;;;11.97;100.00;100173.81;5154606;28;20050;-63
2022/12/22 12:30:24;;;;;;;9.82;4.38;;;12.00;99.90;;;12.46;100.00;100183.44;5164296;28;20483;-61
2022/12/22 12:33:01;;;;;;;10.52;4.20;;;12.60;99.90;;;12.97;100.00;100192.97;5163888;28;20434;-59
2022/12/22 12:35:51;;;;;;;10.85;4.00;;;13.00;99.90;;;12.86;100.00;100194.56;5163616;28;20503;-59
2022/12/22 12:38:33;;;;;;;9.63;4.35;;;13.00;99.90;;;12.55;100.00;100186.19;5163215;28;20054;-58
2022/12/22 12:41:19;;;;;;;8.52;3.97;;;12.80;99.90;;;12.27;100.00;100197.03;5162357;28;20054;-58
2022/12/22 12:43:54;;;;;;;8.90;4.32;;;12.50;99.90;;;12.00;100.00;100186.91;5162191;28;20038;-58
2022/12/22 12:47:05;;;;;;;9.05;3.75;;;12.20;99.90;;;11.81;100.00;100170.03;5162499;28;20052;-58
2022/12/22 12:50:34;;;;;;;8.63;3.40;;;12.00;99.90;;;11.66;100.00;100163.59;5156265;28;20586;-59
2022/12/22 12:53:09;;;;;;;8.27;3.78;;;11.90;99.90;;;11.60;100.00;100173.91;5163704;28;20038;-58
2022/12/22 12:56:04;;;;;;;10.05;4.43;;;11.70;99.90;;;11.53;100.00;100172.03;5163361;28;20042;-58
2022/12/22 12:58:56;;;;;;;7.85;3.50;;;11.60;99.90;;;11.44;100.00;100181.41;5163110;28;20050;-58
2022/12/22 13:01:59;;;;;;;7.97;3.20;;;11.50;99.90;;;11.36;100.00;100189.94;5163643;28;20053;-58
2022/12/22 13:05:12;;;;;;;6.95;3.03;;;11.40;99.90;;;11.29;100.00;100184.56;5163516;28;20456;-58
2022/12/22 13:08:15;;;;;;;10.02;3.83;;;11.40;99.90;;;11.25;100.00;100193.16;5161902;28;20058;-58
2022/12/22 13:11:19;;;;;;;6.47;2.72;;;11.30;99.90;;;11.24;100.00;100188.78;5163394;28;20056;-59
2022/12/22 13:13:52;;;;;;;7.10;2.90;;;11.20;99.90;;;11.26;100.00;100197.53;5163266;28;20043;-58
2022/12/22 13:16:33;;;;;;;7.25;2.88;;;11.30;99.90;;;11.24;100.00;100194.00;5163550;28;20046;-59
2022/12/22 13:19:25;;;;;;;8.40;4.30;;;11.20;99.90;;;11.20;100.00;100192.16;5162998;28;20110;-58
2022/12/22 13:22:02;;;;;;;8.25;3.40;;;11.20;99.90;;;11.16;100.00;100195.56;5162277;28;20507;-58
2022/12/22 13:24:43;;;;;;;7.22;2.85;;;11.20;99.90;;;11.09;100.00;100194.56;5165464;28;20069;-57
2022/12/22 13:27:15;;;;;;;6.72;2.80;;;11.10;99.90;;;11.03;100.00;100190.06;5167085;28;20105;-58
2022/12/22 13:29:48;;;;;;;6.68;3.30;;;11.10;99.90;;;11.00;100.00;100187.38;5166912;28;20515;-60
2022/12/22 13:32:28;;;;;;;7.32;3.10;;;11.10;99.90;;;11.13;100.00;100186.81;5166990;28;20050;-57
2022/12/22 13:35:11;;;;;;;6.80;2.90;;;11.10;99.90;;;11.17;100.00;100192.13;5167031;28;20050;-57
2022/12/22 13:37:47;;;;;;;5.03;2.55;;;11.20;99.90;;;11.18;100.00;100192.13;5166958;28;20038;-57
2022/12/22 13:40:22;;;;;;;7.95;3.03;;;11.20;99.90;;;11.22;100.00;100190.50;5166930;28;20054;-58
2022/12/22 13:42:56;;;;;;;;;;;11.30;99.90;;;11.52;100.00;100193.75;5167762;28;20051;-58
2022/12/22 13:45:36;;;;;;;9.57;3.08;;;11.50;99.90;;;11.50;100.00;100192.84;5166872;28;20289;-60
2022/12/22 13:48:15;;;;;;;5.38;2.75;;;11.60;99.90;;;11.46;100.00;100196.22;5146348;28;20098;-57
2022/12/22 13:50:51;;;;;;;6.57;3.08;;;11.50;99.90;;;11.41;100.00;100205.72;5148473;28;20051;-57
2022/12/22 13:53:31;;;;;;;6.15;2.92;;;11.50;99.90;;;11.37;100.00;100203.88;5164643;28;20049;-57
2022/12/22 13:56:06;;;;;;;6.07;2.72;;;11.40;99.90;;;11.38;100.00;100213.44;5166325;28;20050;-58
2022/12/22 13:58:43;;;;;;;7.80;3.60;;;11.40;99.90;;;11.34;100.00;100211.63;5165247;28;20047;-59
2022/12/22 14:01:19;;;;;;;8.27;3.50;;;11.40;99.90;;;11.32;100.00;100213.31;5165968;28;20105;-59
2022/12/22 14:04:00;;;;;;;6.95;3.22;;;11.30;99.90;;;11.31;100.00;100203.72;5165251;28;20042;-59
2022/12/22 14:06:34;;;;;;;7.95;3.47;;;11.30;99.90;;;11.31;100.00;100203.72;5165772;28;20046;-60
2022/12/22 14:09:17;;;;;;;5.78;2.80;;;11.30;99.90;;;11.32;100.00;100214.19;5164558;28;20053;-59
2022/12/22 14:11:54;;;;;;;5.82;2.75;;;11.30;99.90;;;11.31;100.00;100211.56;5165489;28;20605;-58
2022/12/22 14:14:29;;;;;;;5.70;2.55;;;11.30;99.90;;;11.28;100.00;100211.47;5323337;23;20005;-55
2022/12/22 14:17:02;;;;;;;5.85;2.97;;;11.30;99.90;;;11.27;100.00;100209.72;5205094;28;20045;-60
2022/12/22 14:19:38;;;;;;;5.38;2.10;;;11.30;99.90;;;11.25;100.00;100214.03;5206790;28;20509;-57
2022/12/22 14:22:15;;;;;;;4.72;2.33;;;11.30;99.90;;;11.23;100.00;100210.50;5206133;28;20053;-57
2022/12/22 14:24:53;;;;;;;4.03;2.03;;;11.30;99.90;;;11.21;100.00;100218.28;5207290;28;20045;-56
2022/12/22 14:27:34;;;;;;;5.38;2.33;;;11.20;99.90;;;11.22;100.00;100208.75;5206683;28;20129;-55
2022/12/22 14:30:16;;;;;;;5.30;2.10;;;11.20;99.90;;;11.21;100.00;100210.44;5206263;28;20096;-57
2022/12/22 14:32:51;;;;;;;4.75;2.40;;;11.20;99.90;;;11.22;100.00;100211.38;5206450;28;20042;-56
2022/12/22 14:35:30;;;;;;;4.05;2.03;;;11.20;99.90;;;11.20;100.00;100203.47;5206429;28;20099;-55